sensor_id;sensor_type;location;lat;lon;timestamp;temperature;humidity
30379;DHT22;17168;49.164;9.060;2023-03-11T00:02:28;5.00;97.00
30379;DHT22;17168;49.164;9.060;2023-03-11T00:25:32;4.80;95.10
30379;DHT22;17168;49.164;9.060;2023-03-11T00:28:05;4.90;92.10
30379;DHT22;17168;49.164;9.060;2023-03-11T00:30:39;4.70;90.20
30379;DHT22;17168;49.164;9.060;2023-03-11T00:33:13;4.50;89.40
30379;DHT22;17168;49.164;9.060;2023-03-11T00:35:46;4.50;89.20
30379;DHT22;17168;49.164;9.060;2023-03-11T00:38:20;4.40;89.20
30379;DHT22;17168;49.164;9.060;2023-03-11T00:40:52;4.40;89.40
30379;DHT22;17168;49.164;9.060;2023-03-11T00:43:24;4.40;89.50
30379;DHT22;17168;49.164;9.060;2023-03-11T00:45:56;4.30;89.70
30379;DHT22;17168;49.164;9.060;2023-03-11T00:48:29;4.20;89.90
30379;DHT22;17168;49.164;9.060;2023-03-11T00:51:01;4.20;90.00
30379;DHT22;17168;49.164;9.060;2023-03-11T00:53:35;4.10;90.00
30379;DHT22;17168;49.164;9.060;2023-03-11T00:56:08;4.10;90.00
30379;DHT22;17168;49.164;9.060;2023-03-11T00:58:42;4.00;90.30
30379;DHT22;17168;49.164;9.060;2023-03-11T01:01:17;4.00;90.10
30379;DHT22;17168;49.164;9.060;2023-03-11T01:03:49;3.90;90.20
30379;DHT22;17168;49.164;9.060;2023-03-11T01:06:21;3.90;90.20
30379;DHT22;17168;49.164;9.060;2023-03-11T01:08:57;3.80;90.10
30379;DHT22;17168;49.164;9.060;2023-03-11T01:11:30;3.80;90.10
30379;DHT22;17168;49.164;9.060;2023-03-11T01:14:02;3.80;90.20
30379;DHT22;17168;49.164;9.060;2023-03-11T01:16:35;3.70;90.30
30379;DHT22;17168;49.164;9.060;2023-03-11T01:19:07;3.70;90.30
30379;DHT22;17168;49.164;9.060;2023-03-11T01:21:38;3.70;90.10
30379;DHT22;17168;49.164;9.060;2023-03-11T01:24:13;3.60;90.10
30379;DHT22;17168;49.164;9.060;2023-03-11T01:26:45;3.60;90.10
30379;DHT22;17168;49.164;9.060;2023-03-11T01:29:17;3.50;90.00
30379;DHT22;17168;49.164;9.060;2023-03-11T01:31:49;3.50;90.10
30379;DHT22;17168;49.164;9.060;2023-03-11T01:34:20;3.50;90.10
30379;DHT22;17168;49.164;9.060;2023-03-11T01:36:52;3.40;90.10
30379;DHT22;17168;49.164;9.060;2023-03-11T01:39:27;3.40;90.10
30379;DHT22;17168;49.164;9.060;2023-03-11T01:41:58;3.40;90.10
30379;DHT22;17168;49.164;9.060;2023-03-11T01:44:30;3.40;90.10
30379;DHT22;17168;49.164;9.060;2023-03-11T01:49:49;3.30;90.60
30379;DHT22;17168;49.164;9.060;2023-03-11T01:52:21;3.40;91.30
30379;DHT22;17168;49.164;9.060;2023-03-11T01:54:56;3.30;92.00
30379;DHT22;17168;49.164;9.060;2023-03-11T01:57:28;3.40;92.60
30379;DHT22;17168;49.164;9.060;2023-03-11T02:00:03;3.30;91.80
30379;DHT22;17168;49.164;9.060;2023-03-11T02:02:41;3.30;91.70
30379;DHT22;17168;49.164;9.060;2023-03-11T02:05:14;3.30;91.30
30379;DHT22;17168;49.164;9.060;2023-03-11T02:07:48;3.20;91.30
30379;DHT22;17168;49.164;9.060;2023-03-11T02:10:23;3.20;91.10
30379;DHT22;17168;49.164;9.060;2023-03-11T02:12:56;3.20;91.00
30379;DHT22;17168;49.164;9.060;2023-03-11T02:15:28;3.10;90.50
30379;DHT22;17168;49.164;9.060;2023-03-11T02:18:03;3.10;90.90
30379;DHT22;17168;49.164;9.060;2023-03-11T02:20:43;3.00;90.30
30379;DHT22;17168;49.164;9.060;2023-03-11T02:23:20;2.90;90.50
30379;DHT22;17168;49.164;9.060;2023-03-11T02:26:03;2.90;90.40
30379;DHT22;17168;49.164;9.060;2023-03-11T02:28:41;2.90;90.60
30379;DHT22;17168;49.164;9.060;2023-03-11T02:31:14;2.90;90.70
30379;DHT22;17168;49.164;9.060;2023-03-11T02:33:48;2.90;90.90
30379;DHT22;17168;49.164;9.060;2023-03-11T02:36:40;2.90;91.30
30379;DHT22;17168;49.164;9.060;2023-03-11T02:39:12;2.90;92.00
30379;DHT22;17168;49.164;9.060;2023-03-11T02:41:44;3.00;92.60
30379;DHT22;17168;49.164;9.060;2023-03-11T02:44:19;2.90;93.50
30379;DHT22;17168;49.164;9.060;2023-03-11T02:46:51;2.90;93.20
30379;DHT22;17168;49.164;9.060;2023-03-11T02:57:01;2.60;99.90
30379;DHT22;17168;49.164;9.060;2023-03-11T02:59:35;2.90;99.90
30379;DHT22;17168;49.164;9.060;2023-03-11T03:02:07;2.90;99.90
30379;DHT22;17168;49.164;9.060;2023-03-11T03:04:39;2.90;99.90
30379;DHT22;17168;49.164;9.060;2023-03-11T03:07:11;2.80;99.90
30379;DHT22;17168;49.164;9.060;2023-03-11T03:09:43;2.90;99.90
30379;DHT22;17168;49.164;9.060;2023-03-11T03:12:15;2.50;99.90
30379;DHT22;17168;49.164;9.060;2023-03-11T03:14:49;2.50;99.90
30379;DHT22;17168;49.164;9.060;2023-03-11T03:17:21;2.10;99.90
30379;DHT22;17168;49.164;9.060;2023-03-11T03:19:53;2.90;99.90
30379;DHT22;17168;49.164;9.060;2023-03-11T03:22:24;2.60;99.90
30379;DHT22;17168;49.164;9.060;2023-03-11T03:24:58;2.90;99.90
30379;DHT22;17168;49.164;9.060;2023-03-11T03:27:30;2.90;99.90
30379;DHT22;17168;49.164;9.060;2023-03-11T11:13:58;6.00;99.90
30379;DHT22;17168;49.164;9.060;2023-03-11T11:16:30;5.90;90.10
30379;DHT22;17168;49.164;9.060;2023-03-11T11:19:03;5.90;90.60
30379;DHT22;17168;49.164;9.060;2023-03-11T11:21:40;5.90;91.20
30379;DHT22;17168;49.164;9.060;2023-03-11T11:24:24;6.00;91.50
30379;DHT22;17168;49.164;9.060;2023-03-11T11:27:04;6.00;91.50
30379;DHT22;17168;49.164;9.060;2023-03-11T11:29:39;6.00;91.60
30379;DHT22;17168;49.164;9.060;2023-03-11T11:32:23;6.10;91.70
30379;DHT22;17168;49.164;9.060;2023-03-11T11:34:59;6.10;91.70
30379;DHT22;17168;49.164;9.060;2023-03-11T11:37:34;6.10;91.60
30379;DHT22;17168;49.164;9.060;2023-03-11T11:40:18;6.20;91.90
30379;DHT22;17168;49.164;9.060;2023-03-11T11:42:55;6.20;91.90
30379;DHT22;17168;49.164;9.060;2023-03-11T11:45:34;6.20;91.70
30379;DHT22;17168;49.164;9.060;2023-03-11T11:48:14;6.20;91.20
30379;DHT22;17168;49.164;9.060;2023-03-11T11:50:51;6.20;91.30
30379;DHT22;17168;49.164;9.060;2023-03-11T11:53:29;6.20;91.30
30379;DHT22;17168;49.164;9.060;2023-03-11T11:56:02;6.20;91.30
30379;DHT22;17168;49.164;9.060;2023-03-11T11:58:34;6.10;91.00
30379;DHT22;17168;49.164;9.060;2023-03-11T12:01:14;6.10;90.80
30379;DHT22;17168;49.164;9.060;2023-03-11T12:04:05;6.10;90.70
30379;DHT22;17168;49.164;9.060;2023-03-11T12:06:47;6.10;90.20
30379;DHT22;17168;49.164;9.060;2023-03-11T12:09:26;6.00;90.10
30379;DHT22;17168;49.164;9.060;2023-03-11T12:12:07;6.00;89.90
30379;DHT22;17168;49.164;9.060;2023-03-11T12:14:48;6.00;89.40
30379;DHT22;17168;49.164;9.060;2023-03-11T12:17:30;6.00;89.90
30379;DHT22;17168;49.164;9.060;2023-03-11T12:20:06;6.00;90.00
30379;DHT22;17168;49.164;9.060;2023-03-11T12:23:00;6.10;90.10
30379;DHT22;17168;49.164;9.060;2023-03-11T12:25:40;6.10;90.20
30379;DHT22;17168;49.164;9.060;2023-03-11T12:28:20;6.10;90.30
30379;DHT22;17168;49.164;9.060;2023-03-11T12:30:57;6.10;90.40
30379;DHT22;17168;49.164;9.060;2023-03-11T12:33:36;6.10;90.40
30379;DHT22;17168;49.164;9.060;2023-03-11T12:36:21;6.20;90.50
30379;DHT22;17168;49.164;9.060;2023-03-11T12:38:55;6.20;90.50
30379;DHT22;17168;49.164;9.060;2023-03-11T12:41:32;6.20;90.50
30379;DHT22;17168;49.164;9.060;2023-03-11T12:44:24;6.20;90.50
30379;DHT22;17168;49.164;9.060;2023-03-11T12:47:23;6.20;90.50
30379;DHT22;17168;49.164;9.060;2023-03-11T12:53:15;6.30;90.80
30379;DHT22;17168;49.164;9.060;2023-03-11T12:56:00;6.30;90.40
30379;DHT22;17168;49.164;9.060;2023-03-11T12:58:50;6.30;90.30
30379;DHT22;17168;49.164;9.060;2023-03-11T13:01:43;6.40;90.50
30379;DHT22;17168;49.164;9.060;2023-03-11T13:04:40;6.40;90.60
30379;DHT22;17168;49.164;9.060;2023-03-11T13:07:39;6.90;92.00
30379;DHT22;17168;49.164;9.060;2023-03-11T13:10:19;7.80;92.60
30379;DHT22;17168;49.164;9.060;2023-03-11T13:12:51;8.60;92.30
30379;DHT22;17168;49.164;9.060;2023-03-11T13:15:34;9.30;90.30
30379;DHT22;17168;49.164;9.060;2023-03-11T13:18:17;9.80;90.10
30379;DHT22;17168;49.164;9.060;2023-03-11T13:20:55;9.80;86.10
30379;DHT22;17168;49.164;9.060;2023-03-11T13:23:33;9.80;84.10
30379;DHT22;17168;49.164;9.060;2023-03-11T13:26:36;9.70;83.70
30379;DHT22;17168;49.164;9.060;2023-03-11T13:29:47;9.70;82.30
30379;DHT22;17168;49.164;9.060;2023-03-11T13:32:51;9.60;82.40
30379;DHT22;17168;49.164;9.060;2023-03-11T13:35:35;10.10;83.90
30379;DHT22;17168;49.164;9.060;2023-03-11T13:38:19;11.10;84.20
30379;DHT22;17168;49.164;9.060;2023-03-11T13:40:54;11.10;84.50
30379;DHT22;17168;49.164;9.060;2023-03-11T13:43:29;11.50;82.40
30379;DHT22;17168;49.164;9.060;2023-03-11T13:46:03;11.90;80.60
30379;DHT22;17168;49.164;9.060;2023-03-11T13:48:40;12.00;77.30
30379;DHT22;17168;49.164;9.060;2023-03-11T13:51:17;12.10;77.80
30379;DHT22;17168;49.164;9.060;2023-03-11T13:53:55;12.20;75.50
30379;DHT22;17168;49.164;9.060;2023-03-11T13:56:31;12.40;76.80
30379;DHT22;17168;49.164;9.060;2023-03-11T13:59:21;12.60;75.80
30379;DHT22;17168;49.164;9.060;2023-03-11T14:01:53;12.80;76.40
30379;DHT22;17168;49.164;9.060;2023-03-11T14:04:27;13.00;77.20
30379;DHT22;17168;49.164;9.060;2023-03-11T14:06:59;13.20;77.80
30379;DHT22;17168;49.164;9.060;2023-03-11T14:09:42;13.30;78.70
30379;DHT22;17168;49.164;9.060;2023-03-11T14:12:14;13.50;79.80
30379;DHT22;17168;49.164;9.060;2023-03-11T14:14:52;13.50;77.70
30379;DHT22;17168;49.164;9.060;2023-03-11T14:17:25;13.60;78.40
30379;DHT22;17168;49.164;9.060;2023-03-11T14:20:04;13.80;79.00
30379;DHT22;17168;49.164;9.060;2023-03-11T14:22:37;14.10;79.30
30379;DHT22;17168;49.164;9.060;2023-03-11T14:25:12;14.10;79.10
30379;DHT22;17168;49.164;9.060;2023-03-11T14:27:48;14.10;78.50
30379;DHT22;17168;49.164;9.060;2023-03-11T14:30:24;14.10;77.90
30379;DHT22;17168;49.164;9.060;2023-03-11T14:32:58;13.90;77.70
30379;DHT22;17168;49.164;9.060;2023-03-11T14:35:31;13.90;77.50
30379;DHT22;17168;49.164;9.060;2023-03-11T14:38:03;13.80;77.10
30379;DHT22;17168;49.164;9.060;2023-03-11T14:40:36;13.60;76.60
30379;DHT22;17168;49.164;9.060;2023-03-11T14:43:10;13.40;76.20
30379;DHT22;17168;49.164;9.060;2023-03-11T14:45:46;13.10;75.60
30379;DHT22;17168;49.164;9.060;2023-03-11T14:48:23;12.90;75.50
30379;DHT22;17168;49.164;9.060;2023-03-11T14:50:57;12.60;75.10
30379;DHT22;17168;49.164;9.060;2023-03-11T14:53:33;12.40;74.80
30379;DHT22;17168;49.164;9.060;2023-03-11T14:56:07;12.10;74.40
30379;DHT22;17168;49.164;9.060;2023-03-11T14:58:43;11.90;74.60
30379;DHT22;17168;49.164;9.060;2023-03-11T15:01:24;11.60;74.20
30379;DHT22;17168;49.164;9.060;2023-03-11T15:03:57;11.40;74.30
30379;DHT22;17168;49.164;9.060;2023-03-11T15:06:30;11.20;74.20
30379;DHT22;17168;49.164;9.060;2023-03-11T15:09:04;11.10;74.00
30379;DHT22;17168;49.164;9.060;2023-03-11T15:11:44;11.10;74.30
30379;DHT22;17168;49.164;9.060;2023-03-11T15:14:20;11.10;74.10
30379;DHT22;17168;49.164;9.060;2023-03-11T15:17:09;11.10;74.30
30379;DHT22;17168;49.164;9.060;2023-03-11T15:20:22;11.20;74.40
30379;DHT22;17168;49.164;9.060;2023-03-11T15:22:56;11.30;74.40
30379;DHT22;17168;49.164;9.060;2023-03-11T15:25:33;11.20;74.10
30379;DHT22;17168;49.164;9.060;2023-03-11T15:28:19;11.10;73.70
30379;DHT22;17168;49.164;9.060;2023-03-11T15:31:13;10.90;73.10
30379;DHT22;17168;49.164;9.060;2023-03-11T15:33:48;10.70;72.60
30379;DHT22;17168;49.164;9.060;2023-03-11T15:36:29;10.60;73.20
30379;DHT22;17168;49.164;9.060;2023-03-11T15:39:15;10.40;73.00
30379;DHT22;17168;49.164;9.060;2023-03-11T15:41:57;10.20;72.20
30379;DHT22;17168;49.164;9.060;2023-03-11T15:44:33;10.10;72.30
30379;DHT22;17168;49.164;9.060;2023-03-11T15:47:07;9.90;72.40
30379;DHT22;17168;49.164;9.060;2023-03-11T15:49:45;9.80;72.30
30379;DHT22;17168;49.164;9.060;2023-03-11T15:52:18;9.70;72.50
30379;DHT22;17168;49.164;9.060;2023-03-11T15:54:50;9.50;72.40
30379;DHT22;17168;49.164;9.060;2023-03-11T15:57:27;9.40;72.00
30379;DHT22;17168;49.164;9.060;2023-03-11T16:00:01;9.30;72.20
30379;DHT22;17168;49.164;9.060;2023-03-11T16:02:33;9.30;72.10
30379;DHT22;17168;49.164;9.060;2023-03-11T16:05:11;9.20;72.10
30379;DHT22;17168;49.164;9.060;2023-03-11T16:07:44;9.10;71.70
30379;DHT22;17168;49.164;9.060;2023-03-11T16:10:20;9.10;72.10
30379;DHT22;17168;49.164;9.060;2023-03-11T16:12:53;9.00;72.10
30379;DHT22;17168;49.164;9.060;2023-03-11T16:15:27;9.00;72.10
30379;DHT22;17168;49.164;9.060;2023-03-11T16:18:01;8.90;71.90
30379;DHT22;17168;49.164;9.060;2023-03-11T16:20:39;8.80;71.90
30379;DHT22;17168;49.164;9.060;2023-03-11T16:23:16;8.80;72.30
30379;DHT22;17168;49.164;9.060;2023-03-11T16:25:50;8.70;71.80
30379;DHT22;17168;49.164;9.060;2023-03-11T16:28:23;8.60;71.90
30379;DHT22;17168;49.164;9.060;2023-03-11T16:30:55;8.60;72.10
30379;DHT22;17168;49.164;9.060;2023-03-11T16:33:27;8.50;72.10
30379;DHT22;17168;49.164;9.060;2023-03-11T16:36:03;8.50;72.20
30379;DHT22;17168;49.164;9.060;2023-03-11T16:38:42;8.50;72.30
30379;DHT22;17168;49.164;9.060;2023-03-11T16:41:16;8.40;72.20
30379;DHT22;17168;49.164;9.060;2023-03-11T16:43:48;8.30;72.30
30379;DHT22;17168;49.164;9.060;2023-03-11T16:46:20;8.30;72.20
30379;DHT22;17168;49.164;9.060;2023-03-11T16:48:52;8.20;72.20
30379;DHT22;17168;49.164;9.060;2023-03-11T16:51:27;8.20;72.20
30379;DHT22;17168;49.164;9.060;2023-03-11T16:53:59;8.10;72.10
30379;DHT22;17168;49.164;9.060;2023-03-11T16:56:31;8.10;72.30
30379;DHT22;17168;49.164;9.060;2023-03-11T16:59:05;8.00;72.30
30379;DHT22;17168;49.164;9.060;2023-03-11T17:01:36;8.00;72.30
30379;DHT22;17168;49.164;9.060;2023-03-11T17:04:09;7.90;72.40
30379;DHT22;17168;49.164;9.060;2023-03-11T17:06:43;7.90;72.50
30379;DHT22;17168;49.164;9.060;2023-03-11T17:09:16;7.90;72.40
30379;DHT22;17168;49.164;9.060;2023-03-11T17:11:48;7.80;72.40
30379;DHT22;17168;49.164;9.060;2023-03-11T17:14:20;7.70;72.40
30379;DHT22;17168;49.164;9.060;2023-03-11T17:16:52;7.70;72.50
30379;DHT22;17168;49.164;9.060;2023-03-11T17:19:24;7.60;72.50
30379;DHT22;17168;49.164;9.060;2023-03-11T17:21:59;7.60;72.50
30379;DHT22;17168;49.164;9.060;2023-03-11T17:24:31;7.50;72.50
30379;DHT22;17168;49.164;9.060;2023-03-11T17:27:04;7.40;72.40
30379;DHT22;17168;49.164;9.060;2023-03-11T17:29:36;7.40;72.50
30379;DHT22;17168;49.164;9.060;2023-03-11T17:32:08;7.30;72.40
30379;DHT22;17168;49.164;9.060;2023-03-11T17:34:40;7.30;72.40
30379;DHT22;17168;49.164;9.060;2023-03-11T17:37:15;7.20;72.40
30379;DHT22;17168;49.164;9.060;2023-03-11T17:39:47;7.20;72.70
30379;DHT22;17168;49.164;9.060;2023-03-11T17:42:19;7.10;72.30
30379;DHT22;17168;49.164;9.060;2023-03-11T17:44:54;7.10;72.40
30379;DHT22;17168;49.164;9.060;2023-03-11T17:47:26;7.00;72.30
30379;DHT22;17168;49.164;9.060;2023-03-11T17:49:58;6.90;72.30
30379;DHT22;17168;49.164;9.060;2023-03-11T17:52:33;6.90;72.30
30379;DHT22;17168;49.164;9.060;2023-03-11T17:55:06;6.80;72.30
30379;DHT22;17168;49.164;9.060;2023-03-11T17:57:38;6.70;72.40
30379;DHT22;17168;49.164;9.060;2023-03-11T18:00:16;6.60;72.40
30379;DHT22;17168;49.164;9.060;2023-03-11T18:02:48;6.60;72.50
30379;DHT22;17168;49.164;9.060;2023-03-11T18:05:21;6.50;72.50
30379;DHT22;17168;49.164;9.060;2023-03-11T18:07:56;6.50;72.50
30379;DHT22;17168;49.164;9.060;2023-03-11T18:10:28;6.40;72.70
30379;DHT22;17168;49.164;9.060;2023-03-11T18:13:00;6.30;72.70
30379;DHT22;17168;49.164;9.060;2023-03-11T18:15:32;6.20;72.80
30379;DHT22;17168;49.164;9.060;2023-03-11T18:18:04;6.10;72.80
30379;DHT22;17168;49.164;9.060;2023-03-11T18:20:35;6.10;73.10
30379;DHT22;17168;49.164;9.060;2023-03-11T18:23:10;6.00;73.10
30379;DHT22;17168;49.164;9.060;2023-03-11T18:25:42;5.90;73.00
30379;DHT22;17168;49.164;9.060;2023-03-11T18:28:14;5.80;73.10
30379;DHT22;17168;49.164;9.060;2023-03-11T18:30:46;5.80;73.10
30379;DHT22;17168;49.164;9.060;2023-03-11T18:33:17;5.70;73.20
30379;DHT22;17168;49.164;9.060;2023-03-11T18:35:49;5.60;73.10
30379;DHT22;17168;49.164;9.060;2023-03-11T18:38:24;5.50;73.20
30379;DHT22;17168;49.164;9.060;2023-03-11T18:40:56;5.50;73.40
30379;DHT22;17168;49.164;9.060;2023-03-11T18:43:28;5.40;73.40
30379;DHT22;17168;49.164;9.060;2023-03-11T18:46:00;5.30;73.50
30379;DHT22;17168;49.164;9.060;2023-03-11T18:48:32;5.20;73.90
30379;DHT22;17168;49.164;9.060;2023-03-11T18:51:04;5.10;74.00
30379;DHT22;17168;49.164;9.060;2023-03-11T18:53:40;5.10;74.10
30379;DHT22;17168;49.164;9.060;2023-03-11T18:56:15;5.00;74.00
30379;DHT22;17168;49.164;9.060;2023-03-11T18:58:47;4.90;74.00
30379;DHT22;17168;49.164;9.060;2023-03-11T19:01:20;4.90;73.90
30379;DHT22;17168;49.164;9.060;2023-03-11T19:03:52;4.80;74.00
30379;DHT22;17168;49.164;9.060;2023-03-11T19:06:25;4.70;74.10
30379;DHT22;17168;49.164;9.060;2023-03-11T19:09:00;4.70;74.20
30379;DHT22;17168;49.164;9.060;2023-03-11T19:11:32;4.60;74.30
30379;DHT22;17168;49.164;9.060;2023-03-11T19:14:04;4.60;74.40
30379;DHT22;17168;49.164;9.060;2023-03-11T19:16:36;4.50;74.50
30379;DHT22;17168;49.164;9.060;2023-03-11T19:19:08;4.50;74.50
30379;DHT22;17168;49.164;9.060;2023-03-11T19:21:43;4.40;74.60
30379;DHT22;17168;49.164;9.060;2023-03-11T19:24:17;4.40;74.60
30379;DHT22;17168;49.164;9.060;2023-03-11T19:26:49;4.30;74.60
30379;DHT22;17168;49.164;9.060;2023-03-11T19:29:21;4.30;74.70
30379;DHT22;17168;49.164;9.060;2023-03-11T19:31:54;4.20;74.90
30379;DHT22;17168;49.164;9.060;2023-03-11T19:34:26;4.20;75.20
30379;DHT22;17168;49.164;9.060;2023-03-11T19:36:59;4.10;75.50
30379;DHT22;17168;49.164;9.060;2023-03-11T19:39:33;4.10;75.70
30379;DHT22;17168;49.164;9.060;2023-03-11T19:42:05;4.10;75.80
30379;DHT22;17168;49.164;9.060;2023-03-11T19:44:37;4.00;75.80
30379;DHT22;17168;49.164;9.060;2023-03-11T19:47:09;4.00;75.90
30379;DHT22;17168;49.164;9.060;2023-03-11T19:49:41;3.90;76.00
30379;DHT22;17168;49.164;9.060;2023-03-11T19:52:13;3.80;76.10
30379;DHT22;17168;49.164;9.060;2023-03-11T19:54:49;3.80;76.30
30379;DHT22;17168;49.164;9.060;2023-03-11T19:57:21;3.80;76.40
30379;DHT22;17168;49.164;9.060;2023-03-11T19:59:53;3.80;76.50
30379;DHT22;17168;49.164;9.060;2023-03-11T20:02:25;3.70;76.50
30379;DHT22;17168;49.164;9.060;2023-03-11T20:04:57;3.70;76.70
30379;DHT22;17168;49.164;9.060;2023-03-11T20:07:29;3.60;76.70
30379;DHT22;17168;49.164;9.060;2023-03-11T20:10:05;3.60;76.80
30379;DHT22;17168;49.164;9.060;2023-03-11T20:12:37;3.60;76.90
30379;DHT22;17168;49.164;9.060;2023-03-11T20:15:09;3.50;76.80
30379;DHT22;17168;49.164;9.060;2023-03-11T20:17:41;3.50;76.80
30379;DHT22;17168;49.164;9.060;2023-03-11T20:20:13;3.50;76.90
30379;DHT22;17168;49.164;9.060;2023-03-11T20:22:45;3.40;77.10
30379;DHT22;17168;49.164;9.060;2023-03-11T20:25:20;3.40;77.20
30379;DHT22;17168;49.164;9.060;2023-03-11T20:27:52;3.40;77.30
30379;DHT22;17168;49.164;9.060;2023-03-11T20:30:24;3.40;77.30
30379;DHT22;17168;49.164;9.060;2023-03-11T20:32:56;3.30;77.30
30379;DHT22;17168;49.164;9.060;2023-03-11T20:35:28;3.30;77.30
30379;DHT22;17168;49.164;9.060;2023-03-11T20:38:00;3.30;77.30
30379;DHT22;17168;49.164;9.060;2023-03-11T20:40:36;3.20;77.30
30379;DHT22;17168;49.164;9.060;2023-03-11T20:43:08;3.20;77.40
30379;DHT22;17168;49.164;9.060;2023-03-11T20:45:39;3.10;77.50
30379;DHT22;17168;49.164;9.060;2023-03-11T20:48:11;3.10;77.70
30379;DHT22;17168;49.164;9.060;2023-03-11T20:50:43;3.00;77.80
30379;DHT22;17168;49.164;9.060;2023-03-11T20:53:15;3.00;78.00
30379;DHT22;17168;49.164;9.060;2023-03-11T20:55:49;3.00;78.10
30379;DHT22;17168;49.164;9.060;2023-03-11T20:58:21;2.90;78.10
30379;DHT22;17168;49.164;9.060;2023-03-11T21:00:53;2.90;78.20
30379;DHT22;17168;49.164;9.060;2023-03-11T21:03:25;2.90;78.20
30379;DHT22;17168;49.164;9.060;2023-03-11T21:05:57;2.90;78.40
30379;DHT22;17168;49.164;9.060;2023-03-11T21:08:28;2.90;78.50
30379;DHT22;17168;49.164;9.060;2023-03-11T21:11:03;2.80;78.90
30379;DHT22;17168;49.164;9.060;2023-03-11T21:13:35;2.80;78.40
30379;DHT22;17168;49.164;9.060;2023-03-11T21:16:07;2.80;78.40
30379;DHT22;17168;49.164;9.060;2023-03-11T21:18:40;2.70;78.40
30379;DHT22;17168;49.164;9.060;2023-03-11T21:21:13;2.70;78.40
30379;DHT22;17168;49.164;9.060;2023-03-11T21:23:46;2.70;78.60
30379;DHT22;17168;49.164;9.060;2023-03-11T21:26:22;2.70;78.50
30379;DHT22;17168;49.164;9.060;2023-03-11T21:28:54;2.60;78.40
30379;DHT22;17168;49.164;9.060;2023-03-11T21:31:27;2.60;78.60
30379;DHT22;17168;49.164;9.060;2023-03-11T21:34:00;2.60;78.80
30379;DHT22;17168;49.164;9.060;2023-03-11T21:36:33;2.50;78.90
30379;DHT22;17168;49.164;9.060;2023-03-11T21:39:06;2.50;78.90
30379;DHT22;17168;49.164;9.060;2023-03-11T21:41:41;2.50;78.90
30379;DHT22;17168;49.164;9.060;2023-03-11T21:44:13;2.50;79.00
30379;DHT22;17168;49.164;9.060;2023-03-11T21:46:45;2.40;78.90
30379;DHT22;17168;49.164;9.060;2023-03-11T21:49:16;2.40;79.00
30379;DHT22;17168;49.164;9.060;2023-03-11T21:51:49;2.40;79.00
30379;DHT22;17168;49.164;9.060;2023-03-11T21:54:21;2.30;79.00
30379;DHT22;17168;49.164;9.060;2023-03-11T21:56:55;2.30;79.30
30379;DHT22;17168;49.164;9.060;2023-03-11T21:59:28;2.30;79.50
30379;DHT22;17168;49.164;9.060;2023-03-11T22:02:00;2.20;79.50
30379;DHT22;17168;49.164;9.060;2023-03-11T22:04:33;2.20;79.60
30379;DHT22;17168;49.164;9.060;2023-03-11T22:07:05;2.20;79.60
30379;DHT22;17168;49.164;9.060;2023-03-11T22:09:37;2.20;79.70
30379;DHT22;17168;49.164;9.060;2023-03-11T22:12:12;2.10;79.70
30379;DHT22;17168;49.164;9.060;2023-03-11T22:14:44;2.10;79.70
30379;DHT22;17168;49.164;9.060;2023-03-11T22:17:16;2.10;79.80
30379;DHT22;17168;49.164;9.060;2023-03-11T22:19:48;2.00;79.90
30379;DHT22;17168;49.164;9.060;2023-03-11T22:22:20;2.00;79.90
30379;DHT22;17168;49.164;9.060;2023-03-11T22:24:52;2.00;80.00
30379;DHT22;17168;49.164;9.060;2023-03-11T22:27:26;2.00;80.10
30379;DHT22;17168;49.164;9.060;2023-03-11T22:29:59;1.90;80.10
30379;DHT22;17168;49.164;9.060;2023-03-11T22:32:30;1.90;80.20
30379;DHT22;17168;49.164;9.060;2023-03-11T22:35:03;1.90;80.30
30379;DHT22;17168;49.164;9.060;2023-03-11T22:37:35;1.80;80.30
30379;DHT22;17168;49.164;9.060;2023-03-11T22:40:08;1.80;80.30
30379;DHT22;17168;49.164;9.060;2023-03-11T22:42:43;1.80;80.40
30379;DHT22;17168;49.164;9.060;2023-03-11T22:45:15;1.80;80.40
30379;DHT22;17168;49.164;9.060;2023-03-11T22:47:48;1.80;80.50
30379;DHT22;17168;49.164;9.060;2023-03-11T22:50:22;1.70;80.40
30379;DHT22;17168;49.164;9.060;2023-03-11T22:52:54;1.70;80.70
30379;DHT22;17168;49.164;9.060;2023-03-11T22:55:26;1.70;80.80
30379;DHT22;17168;49.164;9.060;2023-03-11T22:58:01;1.70;81.00
30379;DHT22;17168;49.164;9.060;2023-03-11T23:00:34;1.70;81.00
30379;DHT22;17168;49.164;9.060;2023-03-11T23:03:08;1.70;81.00
30379;DHT22;17168;49.164;9.060;2023-03-11T23:05:41;1.60;81.00
30379;DHT22;17168;49.164;9.060;2023-03-11T23:08:14;1.70;81.00
30379;DHT22;17168;49.164;9.060;2023-03-11T23:10:47;1.60;81.00
30379;DHT22;17168;49.164;9.060;2023-03-11T23:13:21;1.60;81.10
30379;DHT22;17168;49.164;9.060;2023-03-11T23:15:53;1.60;81.60
30379;DHT22;17168;49.164;9.060;2023-03-11T23:18:25;1.60;81.10
30379;DHT22;17168;49.164;9.060;2023-03-11T23:20:58;1.50;81.10
30379;DHT22;17168;49.164;9.060;2023-03-11T23:23:30;1.50;81.20
30379;DHT22;17168;49.164;9.060;2023-03-11T23:26:07;1.50;81.20
30379;DHT22;17168;49.164;9.060;2023-03-11T23:28:42;1.40;81.20
30379;DHT22;17168;49.164;9.060;2023-03-11T23:31:14;1.40;81.30
30379;DHT22;17168;49.164;9.060;2023-03-11T23:33:46;1.40;81.50
30379;DHT22;17168;49.164;9.060;2023-03-11T23:36:20;1.40;81.50
30379;DHT22;17168;49.164;9.060;2023-03-11T23:38:53;1.40;81.50
30379;DHT22;17168;49.164;9.060;2023-03-11T23:41:25;1.40;81.60
30379;DHT22;17168;49.164;9.060;2023-03-11T23:43:59;1.30;81.60
30379;DHT22;17168;49.164;9.060;2023-03-11T23:46:31;1.30;81.80
30379;DHT22;17168;49.164;9.060;2023-03-11T23:49:03;1.30;81.90
30379;DHT22;17168;49.164;9.060;2023-03-11T23:51:35;1.30;82.10
30379;DHT22;17168;49.164;9.060;2023-03-11T23:54:07;1.30;82.10
30379;DHT22;17168;49.164;9.060;2023-03-11T23:56:39;1.30;82.30
30379;DHT22;17168;49.164;9.060;2023-03-11T23:59:14;1.20;82.30
